createdAt,value
2018-12-01T00:00:27.295Z,41.33
2018-12-01T00:02:56.155Z,42.00
2018-12-01T00:05:24.999Z,39.80
2018-12-01T00:07:54.450Z,37.03
2018-12-01T00:10:23.286Z,47.37
2018-12-01T00:12:52.159Z,48.07
2018-12-01T00:15:21.006Z,51.67
2018-12-01T00:17:49.935Z,47.63
2018-12-01T00:20:18.743Z,52.70
2018-12-01T00:22:47.591Z,48.80
2018-12-01T00:25:16.431Z,46.53
2018-12-01T00:27:45.298Z,43.30
2018-12-01T00:30:14.102Z,44.03
2018-12-01T00:32:42.932Z,39.00
2018-12-01T00:35:11.777Z,50.00
2018-12-01T00:37:40.608Z,43.00
2018-12-01T00:40:10.243Z,45.03
2018-12-01T00:42:39.039Z,47.83
2018-12-01T00:45:07.885Z,46.07
2018-12-01T00:47:36.722Z,44.97
2018-12-01T00:50:05.561Z,47.97
2018-12-01T00:52:35.175Z,49.40
2018-12-01T00:55:03.997Z,50.33
2018-12-01T00:57:32.838Z,38.10
2018-12-01T01:00:01.677Z,38.83
2018-12-01T01:02:30.524Z,42.33
2018-12-01T01:04:59.371Z,54.60
2018-12-01T01:07:28.206Z,55.77
2018-12-01T01:09:57.054Z,46.00
2018-12-01T01:12:25.934Z,44.40
2018-12-01T01:14:54.752Z,46.97
2018-12-01T01:17:23.634Z,47.10
2018-12-01T01:19:52.455Z,51.50
2018-12-01T01:22:22.050Z,45.53
2018-12-01T01:24:51.637Z,44.13
2018-12-01T01:27:21.064Z,48.33
2018-12-01T01:29:49.895Z,42.17
2018-12-01T01:32:18.733Z,47.87
2018-12-01T01:34:47.594Z,47.03
2018-12-01T01:37:16.458Z,47.97
2018-12-01T01:39:45.297Z,53.65
2018-12-01T01:42:14.139Z,44.03
2018-12-01T01:44:42.980Z,47.13
2018-12-01T01:47:12.570Z,41.67
2018-12-01T01:49:41.415Z,54.83
2018-12-01T01:52:10.269Z,49.73
2018-12-01T01:54:39.857Z,48.53
2018-12-01T01:57:08.676Z,49.60
2018-12-01T01:59:37.515Z,46.30
2018-12-01T02:02:06.359Z,45.33
2018-12-01T02:04:35.190Z,46.27
2018-12-01T02:07:04.025Z,51.73
2018-12-01T02:09:33.592Z,51.73
2018-12-01T02:12:02.425Z,56.07
2018-12-01T02:14:31.265Z,58.97
2018-12-01T02:17:00.112Z,48.60
2018-12-01T02:19:28.954Z,56.47
2018-12-01T02:21:57.792Z,62.97
2018-12-01T02:24:26.626Z,52.07
2018-12-01T02:26:55.481Z,59.67
2018-12-01T02:29:24.321Z,47.90
2018-12-01T02:31:53.167Z,49.23
2018-12-01T02:34:22.027Z,54.87
2018-12-01T02:36:51.603Z,57.95
2018-12-01T02:39:20.452Z,61.63
2018-12-01T02:41:49.289Z,55.40
2018-12-01T02:47:05.026Z,57.40
2018-12-01T02:49:34.602Z,55.00
2018-12-01T02:52:03.440Z,44.13
2018-12-01T02:54:32.282Z,48.27
2018-12-01T02:57:01.130Z,44.90
2018-12-01T02:59:29.959Z,49.90
2018-12-01T03:01:59.532Z,57.83
2018-12-01T03:04:28.367Z,64.28
2018-12-01T03:06:57.212Z,50.60
2018-12-01T03:09:26.047Z,56.97
2018-12-01T03:11:54.898Z,47.20
2018-12-01T03:14:23.733Z,54.97
2018-12-01T03:16:52.572Z,48.00
2018-12-01T03:19:21.410Z,51.40
2018-12-01T03:21:50.247Z,54.97
2018-12-01T03:24:19.081Z,51.57
2018-12-01T03:26:47.918Z,49.10
2018-12-01T03:29:16.767Z,48.60
2018-12-01T03:31:45.611Z,45.53
2018-12-01T03:34:14.433Z,48.43
2018-12-01T03:36:44.018Z,49.47
2018-12-01T03:39:13.605Z,53.63
2018-12-01T03:41:42.437Z,54.05
2018-12-01T03:44:11.279Z,44.67
2018-12-01T03:46:40.122Z,50.97
2018-12-01T03:49:08.985Z,45.83
2018-12-01T03:51:37.827Z,48.63
2018-12-01T03:54:06.666Z,54.03
2018-12-01T03:56:36.242Z,45.97
2018-12-01T03:59:05.091Z,60.35
2018-12-01T04:01:33.921Z,47.17
2018-12-01T04:04:02.785Z,50.07
2018-12-01T04:06:31.615Z,57.63
2018-12-01T04:09:00.461Z,75.53
2018-12-01T04:11:29.304Z,101.87
2018-12-01T04:13:58.140Z,72.37
2018-12-01T04:16:26.974Z,57.57
2018-12-01T04:18:55.838Z,59.57
2018-12-01T04:21:24.671Z,54.03
2018-12-01T04:23:53.506Z,47.13
2018-12-01T04:26:22.395Z,44.70
2018-12-01T04:28:51.939Z,46.13
2018-12-01T04:31:20.799Z,42.07
2018-12-01T04:33:49.647Z,54.55
2018-12-01T04:36:18.478Z,43.47
2018-12-01T04:38:47.313Z,50.60
2018-12-01T04:41:16.167Z,51.90
2018-12-01T04:43:44.993Z,52.97
2018-12-01T04:46:14.581Z,63.73
2018-12-01T04:48:43.444Z,56.50
2018-12-01T04:51:12.288Z,70.75
2018-12-01T04:53:41.132Z,64.47
2018-12-01T04:56:09.972Z,74.53
2018-12-01T04:58:38.827Z,60.43
2018-12-01T05:01:07.687Z,59.57
2018-12-01T05:03:36.570Z,76.60
2018-12-01T05:06:05.396Z,71.20
2018-12-01T05:08:35.006Z,63.20
2018-12-01T05:11:03.820Z,58.43
2018-12-01T05:13:32.677Z,47.80
2018-12-01T05:16:01.529Z,46.80
2018-12-01T05:18:30.390Z,52.33
2018-12-01T05:20:59.952Z,46.97
2018-12-01T05:23:28.780Z,51.80
2018-12-01T05:25:57.630Z,51.00
2018-12-01T05:28:26.472Z,50.43
2018-12-01T05:30:55.341Z,58.40
2018-12-01T05:33:24.915Z,51.17
2018-12-01T05:35:53.747Z,49.47
2018-12-01T05:38:22.589Z,53.13
2018-12-01T05:40:51.434Z,44.93
2018-12-01T05:43:20.288Z,37.33
2018-12-01T05:45:49.861Z,43.50
2018-12-01T05:48:18.699Z,50.45
2018-12-01T05:50:48.288Z,47.87
2018-12-01T05:53:17.128Z,51.15
2018-12-01T05:55:45.973Z,45.63
2018-12-01T05:58:15.556Z,48.40
2018-12-01T06:00:44.390Z,51.55
2018-12-01T06:03:13.233Z,47.30
2018-12-01T06:05:42.075Z,46.33
2018-12-01T06:08:10.919Z,40.97
2018-12-01T06:10:39.774Z,34.03
2018-12-01T06:13:08.616Z,48.77
2018-12-01T06:15:38.201Z,47.58
2018-12-01T06:18:07.044Z,46.37
2018-12-01T06:20:35.883Z,45.93
2018-12-01T06:23:04.734Z,39.67
2018-12-01T06:25:33.576Z,41.77
2018-12-01T06:28:03.159Z,41.93
2018-12-01T06:30:31.992Z,37.97
2018-12-01T06:33:00.829Z,36.43
2018-12-01T06:35:29.726Z,39.87
2018-12-01T06:37:58.554Z,35.57
2018-12-01T06:40:27.390Z,34.27
2018-12-01T06:42:56.222Z,38.10
2018-12-01T06:45:25.807Z,33.80
2018-12-01T06:47:54.642Z,35.60
2018-12-01T06:50:23.487Z,31.77
2018-12-01T06:52:52.334Z,30.10
2018-12-01T06:55:21.165Z,31.10
2018-12-01T06:57:50.021Z,30.83
2018-12-01T07:00:18.864Z,30.00
2018-12-01T07:02:48.503Z,28.27
2018-12-01T07:05:17.305Z,27.30
2018-12-01T07:07:46.158Z,31.13
2018-12-01T07:10:14.998Z,31.70
2018-12-01T07:12:43.818Z,29.70
2018-12-01T07:15:13.411Z,33.37
2018-12-01T07:17:42.245Z,34.50
2018-12-01T07:20:11.086Z,34.80
2018-12-01T07:22:40.707Z,30.97
2018-12-01T07:25:09.543Z,30.90
2018-12-01T07:27:38.385Z,30.63
2018-12-01T07:30:07.987Z,26.23
2018-12-01T07:32:36.830Z,32.15
2018-12-01T07:35:05.677Z,27.30
2018-12-01T07:37:35.252Z,25.47
2018-12-01T07:40:04.085Z,25.58
2018-12-01T07:42:32.932Z,23.03
2018-12-01T07:45:01.795Z,29.17
2018-12-01T07:47:30.623Z,24.80
2018-12-01T07:49:59.472Z,24.43
2018-12-01T07:52:28.319Z,24.87
2018-12-01T07:54:57.888Z,23.70
2018-12-01T07:57:26.721Z,28.53
2018-12-01T07:59:55.576Z,25.27
2018-12-01T08:02:24.406Z,23.77
2018-12-01T08:04:53.241Z,23.90
2018-12-01T08:07:22.077Z,21.33
2018-12-01T08:09:50.918Z,21.43
2018-12-01T08:12:19.753Z,22.77
2018-12-01T08:14:48.712Z,20.37
2018-12-01T08:17:17.552Z,20.37
2018-12-01T08:19:46.395Z,20.57
2018-12-01T08:22:15.242Z,24.20
2018-12-01T08:24:44.077Z,20.37
2018-12-01T08:27:12.937Z,20.60
2018-12-01T08:29:41.781Z,23.83
2018-12-01T08:32:10.620Z,24.05
2018-12-01T08:34:39.467Z,21.83
2018-12-01T08:37:08.319Z,23.60
2018-12-01T08:39:37.165Z,23.57
2018-12-01T08:42:06.011Z,26.23
2018-12-01T08:44:34.862Z,26.00
2018-12-01T08:47:03.705Z,21.47
2018-12-01T08:49:32.547Z,21.13
2018-12-01T08:52:01.393Z,24.80
2018-12-01T08:54:30.242Z,23.10
2018-12-01T08:56:59.086Z,26.63
2018-12-01T08:59:27.927Z,23.17
2018-12-01T09:01:57.536Z,23.33
2018-12-01T09:04:26.387Z,25.05
2018-12-01T09:06:55.223Z,23.40
2018-12-01T09:09:24.813Z,21.63
2018-12-01T09:11:53.655Z,23.03
2018-12-01T09:14:22.497Z,20.70
2018-12-01T09:16:51.452Z,23.07
2018-12-01T09:19:20.283Z,22.40
2018-12-01T09:21:49.868Z,21.53
2018-12-01T09:24:19.303Z,25.90
2018-12-01T09:26:48.150Z,19.77
2018-12-01T09:29:16.979Z,18.93
2018-12-01T09:31:46.558Z,20.57
2018-12-01T09:34:15.416Z,20.13
2018-12-01T09:36:44.262Z,20.07
2018-12-01T09:39:13.100Z,20.23
2018-12-01T09:41:41.946Z,19.40
2018-12-01T09:44:10.785Z,19.13
2018-12-01T09:46:39.615Z,18.37
2018-12-01T09:49:08.445Z,19.93
2018-12-01T09:51:37.288Z,18.27
2018-12-01T09:54:06.867Z,20.10
2018-12-01T09:56:35.698Z,21.92
2018-12-01T09:59:05.290Z,21.13
2018-12-01T10:01:34.863Z,20.57
2018-12-01T10:04:03.707Z,19.97
2018-12-01T10:06:32.546Z,21.43
2018-12-01T10:09:01.407Z,20.77
2018-12-01T10:11:30.254Z,21.03
2018-12-01T10:13:59.836Z,21.93
2018-12-01T10:16:28.657Z,22.70
2018-12-01T10:18:57.499Z,19.13
2018-12-01T10:21:26.328Z,19.00
2018-12-01T10:23:55.910Z,18.50
2018-12-01T10:26:24.769Z,20.88
2018-12-01T10:28:53.616Z,17.40
2018-12-01T10:31:23.244Z,16.70
2018-12-01T10:33:52.104Z,16.37
2018-12-01T10:36:21.709Z,16.23
2018-12-01T10:38:51.302Z,17.53
2018-12-01T10:41:20.143Z,18.27
2018-12-01T10:43:48.993Z,22.43
2018-12-01T10:46:18.566Z,17.77
2018-12-01T10:48:47.438Z,17.93
2018-12-01T10:51:16.323Z,17.33
2018-12-01T10:53:45.149Z,18.70
2018-12-01T10:56:13.979Z,20.73
2018-12-01T10:58:42.822Z,18.17
2018-12-01T11:01:12.668Z,16.33
2018-12-01T11:03:41.508Z,15.70
2018-12-01T11:06:10.360Z,14.93
2018-12-01T11:08:39.197Z,13.80
2018-12-01T11:11:08.045Z,14.77
2018-12-01T11:13:36.887Z,14.50
2018-12-01T11:16:05.729Z,14.33
2018-12-01T11:18:34.578Z,13.77
2018-12-01T11:21:04.266Z,14.53
2018-12-01T11:23:33.119Z,13.43
2018-12-01T11:26:01.955Z,12.87
2018-12-01T11:28:31.382Z,13.93
2018-12-01T11:31:00.215Z,16.17
2018-12-01T11:33:29.064Z,17.57
2018-12-01T11:35:58.643Z,17.00
2018-12-01T11:38:27.474Z,12.37
2018-12-01T11:40:56.313Z,12.27
2018-12-01T11:43:25.150Z,12.13
2018-12-01T11:45:54.002Z,10.37
2018-12-01T11:48:22.847Z,10.60
2018-12-01T11:50:51.678Z,10.60
2018-12-01T11:53:20.530Z,11.57
2018-12-01T11:55:49.370Z,12.73
2018-12-01T11:58:18.945Z,9.20
2018-12-01T12:00:47.816Z,10.93
2018-12-01T12:03:16.643Z,9.07
2018-12-01T12:05:45.516Z,9.00
2018-12-01T12:08:14.316Z,12.43
2018-12-01T12:10:43.193Z,10.93
2018-12-01T12:13:12.003Z,9.77
2018-12-01T12:15:40.853Z,10.03
2018-12-01T12:18:09.697Z,10.67
2018-12-01T12:20:38.626Z,9.33
2018-12-01T12:23:07.379Z,12.13
2018-12-01T12:25:37.237Z,9.53
2018-12-01T12:28:05.991Z,11.37
2018-12-01T12:30:34.827Z,11.67
2018-12-01T12:33:03.661Z,10.17
2018-12-01T12:35:32.494Z,8.47
2018-12-01T12:38:01.319Z,8.63
2018-12-01T12:40:30.145Z,10.30
2018-12-01T12:42:58.980Z,8.73
2018-12-01T12:45:27.829Z,9.93
2018-12-01T12:47:56.674Z,9.37
2018-12-01T12:50:26.267Z,7.60
2018-12-01T12:52:55.129Z,10.73
2018-12-01T12:55:23.977Z,11.60
2018-12-01T12:57:52.831Z,11.57
2018-12-01T13:00:21.663Z,13.27
2018-12-01T13:02:50.546Z,8.53
2018-12-01T13:05:19.379Z,9.27
2018-12-01T13:07:48.207Z,9.53
2018-12-01T13:10:17.780Z,9.60
2018-12-01T13:12:46.622Z,10.33
2018-12-01T13:15:15.464Z,8.80
2018-12-01T13:17:44.287Z,7.80
2018-12-01T13:20:13.116Z,8.73
2018-12-01T13:22:41.941Z,7.90
2018-12-01T13:25:10.763Z,7.00
2018-12-01T13:27:39.629Z,9.53
2018-12-01T13:30:08.437Z,9.33
2018-12-01T13:32:37.266Z,8.20
2018-12-01T13:35:06.120Z,11.10
2018-12-01T13:37:34.960Z,9.07
2018-12-01T13:40:03.785Z,11.90
2018-12-01T13:42:33.374Z,8.57
2018-12-01T13:45:02.348Z,9.93
2018-12-01T13:47:31.188Z,8.13
2018-12-01T13:50:00.047Z,8.60
2018-12-01T13:52:29.478Z,9.00
2018-12-01T13:54:58.316Z,8.63
2018-12-01T13:57:27.154Z,11.40
2018-12-01T13:59:56.138Z,9.63
2018-12-01T14:02:24.935Z,8.63
2018-12-01T14:04:53.768Z,7.57
2018-12-01T14:07:24.134Z,7.57
2018-12-01T14:09:52.982Z,7.47
2018-12-01T14:12:21.808Z,8.83
2018-12-01T14:14:50.918Z,10.17
2018-12-01T14:17:20.502Z,9.05
2018-12-01T14:19:49.348Z,9.73
2018-12-01T14:22:18.202Z,8.88
2018-12-01T14:24:47.781Z,8.03
2018-12-01T14:27:16.611Z,8.77
2018-12-01T14:29:45.433Z,6.87
2018-12-01T14:32:14.256Z,9.20
2018-12-01T14:34:43.146Z,10.20
2018-12-01T14:37:11.957Z,9.40
2018-12-01T14:39:40.796Z,11.10
2018-12-01T14:42:09.630Z,8.17
2018-12-01T14:44:39.205Z,7.07
2018-12-01T14:47:08.056Z,8.17
2018-12-01T14:49:36.907Z,7.43
2018-12-01T14:52:06.482Z,7.77
2018-12-01T14:54:35.326Z,8.25
2018-12-01T14:57:04.160Z,8.20
2018-12-01T14:59:32.995Z,10.23
2018-12-01T15:02:01.843Z,10.33
2018-12-01T15:04:30.679Z,12.23
2018-12-01T15:06:59.519Z,11.67
2018-12-01T15:09:28.345Z,8.63
2018-12-01T15:11:57.932Z,11.40
2018-12-01T15:14:26.825Z,10.50
2018-12-01T15:16:55.613Z,8.97
2018-12-01T15:19:25.181Z,8.87
2018-12-01T15:21:54.026Z,10.20
2018-12-01T15:24:22.866Z,7.37
2018-12-01T15:26:51.722Z,11.90
2018-12-01T15:29:20.629Z,10.93
2018-12-01T15:31:49.482Z,12.43
2018-12-01T15:34:19.060Z,17.20
2018-12-01T15:36:47.916Z,17.67
2018-12-01T15:39:16.755Z,22.30
2018-12-01T15:41:45.607Z,23.07
2018-12-01T15:44:14.477Z,20.53
2018-12-01T15:46:43.303Z,13.85
2018-12-01T15:49:12.171Z,14.80
2018-12-01T15:51:40.993Z,12.57
2018-12-01T15:54:09.831Z,14.87
2018-12-01T15:56:38.663Z,9.47
2018-12-01T15:59:08.237Z,13.80
2018-12-01T16:01:37.082Z,10.23
2018-12-01T16:04:06.643Z,12.00
2018-12-01T16:06:35.468Z,7.33
2018-12-01T16:09:04.323Z,8.43
2018-12-01T16:11:33.152Z,7.73
2018-12-01T16:14:02.739Z,10.25
2018-12-01T16:16:32.315Z,9.23
2018-12-01T16:19:01.158Z,10.25
2018-12-01T16:21:29.993Z,9.77
2018-12-01T16:23:58.828Z,11.47
2018-12-01T16:26:28.422Z,9.43
2018-12-01T16:28:58.003Z,7.75
2018-12-01T16:31:26.827Z,5.90
2018-12-01T16:33:55.675Z,8.00
2018-12-01T16:36:24.540Z,8.10
2018-12-01T16:38:53.393Z,13.23
2018-12-01T16:41:22.974Z,10.03
2018-12-01T16:43:51.927Z,10.23
2018-12-01T16:46:20.721Z,10.30
2018-12-01T16:48:49.558Z,10.70
2018-12-01T16:51:20.690Z,11.63
2018-12-01T16:53:48.684Z,12.00
2018-12-01T16:56:17.498Z,11.70
2018-12-01T16:58:46.332Z,9.63
2018-12-01T17:01:15.167Z,11.20
2018-12-01T17:03:44.004Z,12.17
2018-12-01T17:06:12.854Z,10.87
2018-12-01T17:08:41.686Z,10.07
2018-12-01T17:11:10.530Z,11.93
2018-12-01T17:20:09.662Z,9.23
2018-12-01T17:22:38.509Z,13.63
2018-12-01T17:25:07.371Z,13.97
2018-12-01T17:27:36.215Z,16.63
2018-12-01T17:30:05.058Z,14.73
2018-12-01T17:32:33.910Z,15.57
2018-12-01T17:35:02.740Z,10.53
2018-12-01T17:37:32.434Z,9.00
2018-12-01T17:40:01.264Z,10.00
2018-12-01T17:42:30.118Z,12.23
2018-12-01T17:44:58.964Z,8.30
2018-12-01T17:47:27.830Z,10.17
2018-12-01T17:49:56.673Z,10.07
2018-12-01T17:52:25.528Z,6.23
2018-12-01T17:54:54.375Z,9.37
2018-12-01T17:57:23.949Z,7.63
2018-12-01T17:59:52.791Z,9.85
2018-12-01T18:02:21.636Z,8.03
2018-12-01T18:04:51.048Z,7.53
2018-12-01T18:07:20.762Z,8.87
2018-12-01T18:09:49.616Z,10.07
2018-12-01T18:12:18.465Z,10.37
2018-12-01T18:14:48.051Z,10.77
2018-12-01T18:17:16.897Z,10.07
2018-12-01T18:19:45.734Z,11.67
2018-12-01T18:22:15.318Z,8.07
2018-12-01T18:24:44.165Z,10.82
2018-12-01T18:27:13.003Z,9.50
2018-12-01T18:29:41.838Z,11.87
2018-12-01T18:32:10.683Z,8.13
2018-12-01T18:34:39.540Z,8.90
2018-12-01T18:37:08.359Z,9.88
2018-12-01T18:42:15.713Z,11.15
2018-12-01T18:44:44.537Z,8.63
2018-12-01T18:47:13.379Z,9.40
2018-12-01T18:49:42.245Z,7.97
2018-12-01T18:52:11.069Z,9.43
2018-12-01T18:54:39.931Z,8.20
2018-12-01T18:57:09.520Z,8.17
2018-12-01T18:59:39.132Z,7.90
2018-12-01T19:02:07.953Z,10.23
2018-12-01T19:04:36.798Z,8.93
2018-12-01T19:07:06.386Z,12.20
2018-12-01T19:09:35.233Z,7.73
2018-12-01T19:12:04.088Z,9.83
2018-12-01T19:14:32.923Z,8.07
2018-12-01T19:17:01.785Z,12.27
2018-12-01T19:19:30.621Z,8.70
2018-12-01T19:21:59.484Z,10.47
2018-12-01T19:24:28.314Z,8.97
2018-12-01T19:26:57.192Z,11.00
2018-12-01T19:29:26.069Z,9.40
2018-12-01T19:31:55.629Z,9.60
2018-12-01T19:34:24.468Z,9.17
2018-12-01T19:36:53.313Z,9.70
2018-12-01T19:39:22.903Z,9.73
2018-12-01T19:41:51.756Z,11.30
2018-12-01T19:44:20.588Z,8.40
2018-12-01T19:46:49.492Z,7.97
2018-12-01T19:49:18.296Z,7.67
2018-12-01T19:51:47.153Z,8.13
2018-12-01T19:54:15.997Z,10.60
2018-12-01T19:56:44.835Z,12.23
2018-12-01T19:59:14.452Z,21.67
2018-12-01T20:01:44.042Z,17.50
2018-12-01T20:04:12.898Z,23.13
2018-12-01T20:06:41.810Z,11.30
2018-12-01T20:09:10.708Z,19.53
2018-12-01T20:11:39.560Z,15.33
2018-12-01T20:14:08.428Z,18.00
2018-12-01T20:16:37.336Z,20.30
2018-12-01T20:19:06.967Z,15.83
2018-12-01T20:21:35.825Z,11.80
2018-12-01T20:24:04.681Z,12.90
2018-12-01T20:26:33.548Z,12.03
2018-12-01T20:29:02.364Z,8.17
2018-12-01T20:31:31.216Z,7.87
2018-12-01T20:34:00.064Z,7.10
2018-12-01T20:36:28.911Z,5.17
2018-12-01T20:38:57.747Z,5.40
2018-12-01T20:43:47.479Z,5.07
2018-12-01T20:46:16.280Z,5.80
2018-12-01T20:48:45.272Z,5.43
2018-12-01T20:51:14.004Z,7.43
2018-12-01T20:53:42.845Z,5.77
2018-12-01T20:56:11.704Z,6.57
2018-12-01T20:58:40.564Z,6.37
2018-12-01T21:01:09.419Z,4.87
2018-12-01T21:03:38.239Z,7.67
2018-12-01T21:06:07.130Z,7.70
2018-12-01T21:08:35.966Z,6.53
2018-12-01T21:11:04.807Z,6.00
2018-12-01T21:13:33.662Z,6.80
2018-12-01T21:16:03.090Z,6.70
2018-12-01T21:18:31.966Z,5.27
2018-12-01T21:21:01.565Z,5.90
2018-12-01T21:23:30.411Z,6.67
2018-12-01T21:25:59.238Z,5.80
2018-12-01T21:28:28.716Z,7.07
2018-12-01T21:30:57.547Z,7.10
2018-12-01T21:33:27.142Z,5.83
2018-12-01T21:35:56.736Z,9.00
2018-12-01T21:38:25.575Z,16.50
2018-12-01T21:40:54.424Z,11.77
2018-12-01T21:43:23.272Z,13.43
2018-12-01T21:45:52.115Z,15.47
2018-12-01T21:48:21.029Z,12.93
2018-12-01T21:50:49.846Z,15.77
2018-12-01T21:53:18.681Z,14.27
2018-12-01T21:55:48.248Z,7.77
2018-12-01T21:58:17.088Z,5.90
2018-12-01T22:00:46.669Z,4.50
2018-12-01T22:03:15.517Z,5.87
2018-12-01T22:05:44.354Z,6.27
2018-12-01T22:08:13.210Z,6.50
2018-12-01T22:10:42.045Z,7.67
2018-12-01T22:13:11.637Z,6.73
2018-12-01T22:15:41.223Z,5.83
2018-12-01T22:18:10.062Z,7.40
2018-12-01T22:20:38.905Z,6.20
2018-12-01T22:23:07.743Z,7.30
2018-12-01T22:25:36.583Z,7.70
2018-12-01T22:28:05.424Z,7.43
2018-12-01T22:30:34.259Z,6.40
2018-12-01T22:33:03.093Z,6.40
2018-12-01T22:35:31.953Z,8.00
2018-12-01T22:38:00.789Z,6.07
2018-12-01T22:40:29.636Z,6.10
2018-12-01T22:42:59.223Z,4.27
2018-12-01T22:45:28.068Z,6.43
2018-12-01T22:47:56.933Z,5.63
2018-12-01T22:50:25.724Z,7.57
2018-12-01T22:52:55.293Z,5.70
2018-12-01T22:55:24.129Z,5.23
2018-12-01T22:57:52.983Z,6.07
2018-12-01T23:00:21.837Z,8.20
2018-12-01T23:02:50.687Z,7.50
2018-12-01T23:05:20.269Z,7.93
2018-12-01T23:07:49.108Z,6.80
2018-12-01T23:10:17.955Z,7.20
2018-12-01T23:12:47.564Z,7.20
2018-12-01T23:15:16.392Z,6.00
2018-12-01T23:17:45.233Z,7.10
2018-12-01T23:20:14.073Z,7.60
2018-12-01T23:22:42.905Z,6.80
2018-12-01T23:25:11.753Z,7.70
2018-12-01T23:27:40.585Z,5.90
2018-12-01T23:30:09.431Z,8.57
2018-12-01T23:32:38.277Z,7.23
2018-12-01T23:35:07.844Z,9.18
2018-12-01T23:37:36.673Z,7.80
2018-12-01T23:40:06.253Z,6.30
2018-12-01T23:42:35.091Z,6.95
2018-12-01T23:45:03.943Z,6.13
2018-12-01T23:47:32.781Z,5.23
2018-12-01T23:50:01.615Z,8.60
2018-12-01T23:52:30.469Z,5.67
2018-12-01T23:54:59.319Z,6.60
2018-12-01T23:57:28.170Z,4.83
2018-12-01T23:59:56.990Z,5.33
